Time;durP1;ratioP1;P1;durP2;ratioP2;P2;SDS_P1;SDS_P2;PMS_P1;PMS_P2;Temp;Humidity;BMP_temperature;BMP_pressure;BME280_temperature;BME280_humidity;BME280_pressure;Samples;Min_cycle;Max_cycle;Signal;HPM_P1;HPM_P2
2022/06/14 00:02:26;;;;;;;5.37;3.40;;;16.70;87.30;;;;;;7362995;19;20926;-40
2022/06/14 00:04:56;;;;;;;5.00;3.67;;;16.60;87.90;;;;;;7365810;19;20376;-40
2022/06/14 00:07:28;;;;;;;6.50;3.33;;;16.60;88.20;;;;;;7364518;19;20824;-40
2022/06/14 00:09:57;;;;;;;6.27;3.67;;;16.60;88.20;;;;;;7368808;19;20879;-40
2022/06/14 00:12:29;;;;;;;5.77;3.40;;;16.50;88.10;;;;;;7369596;19;20885;-40
2022/06/14 00:14:59;;;;;;;6.67;3.83;;;16.50;88.90;;;;;;7372006;19;20378;-40
2022/06/14 00:17:28;;;;;;;6.47;3.30;;;16.40;89.60;;;;;;7369836;19;20938;-41
2022/06/14 00:19:58;;;;;;;4.43;2.87;;;16.30;89.80;;;;;;7370883;19;20382;-40
2022/06/14 00:22:28;;;;;;;7.70;3.70;;;15.70;92.00;;;;;;7374445;19;20367;-40
2022/06/14 00:24:58;;;;;;;5.10;3.47;;;15.90;91.90;;;;;;7372763;19;20364;-40
2022/06/14 00:27:30;;;;;;;9.77;4.80;;;15.90;92.10;;;;;;7369450;19;20399;-40
2022/06/14 00:29:59;;;;;;;7.47;4.37;;;16.00;91.70;;;;;;7367376;19;20955;-40
2022/06/14 00:32:29;;;;;;;5.40;3.77;;;16.00;91.70;;;;;;7374180;19;20404;-40
2022/06/14 00:34:58;;;;;;;7.57;3.90;;;15.80;92.50;;;;;;7373187;19;20736;-40
2022/06/14 00:37:28;;;;;;;7.57;3.37;;;16.00;92.30;;;;;;7373206;19;20894;-40
2022/06/14 00:39:57;;;;;;;5.20;3.23;;;16.10;91.80;;;;;;7374319;19;20383;-40
2022/06/14 00:42:29;;;;;;;4.43;3.60;;;16.10;91.70;;;;;;7366709;19;20384;-40
2022/06/14 00:45:08;;;;;;;4.80;3.60;;;16.00;92.30;;;;;;7371336;19;20420;-40
2022/06/14 00:47:41;;;;;;;5.60;4.23;;;16.10;91.90;;;;;;7368292;19;21644;-40
2022/06/14 00:50:20;;;;;;;12.30;4.00;;;15.90;92.40;;;;;;7368204;19;20392;-41
2022/06/14 00:52:53;;;;;;;9.20;4.03;;;15.70;93.70;;;;;;7369041;19;20968;-40
2022/06/14 00:55:28;;;;;;;6.17;3.93;;;15.80;93.10;;;;;;7374510;19;20372;-40
2022/06/14 00:58:05;;;;;;;4.90;3.80;;;15.90;92.60;;;;;;7370996;19;20376;-40
2022/06/14 01:00:40;;;;;;;8.13;5.50;;;15.70;93.20;;;;;;7369144;19;20382;-40
2022/06/14 01:03:16;;;;;;;4.10;3.40;;;15.70;93.80;;;;;;7369416;19;20476;-41
2022/06/14 01:08:40;;;;;;;6.47;4.43;;;15.50;94.00;;;;;;7373538;19;20384;-40
2022/06/14 01:11:16;;;;;;;8.10;3.90;;;15.50;94.70;;;;;;7370820;19;20372;-40
2022/06/14 01:13:49;;;;;;;5.03;3.53;;;15.50;94.70;;;;;;7369782;19;20818;-40
2022/06/14 01:16:18;;;;;;;7.43;4.17;;;15.70;94.50;;;;;;7365014;19;20479;-40
2022/06/14 01:18:48;;;;;;;7.47;3.60;;;15.60;94.50;;;;;;7364190;19;21182;-40
2022/06/14 01:21:18;;;;;;;9.40;4.70;;;15.40;95.20;;;;;;7367012;19;20383;-43
2022/06/14 01:23:50;;;;;;;7.50;3.90;;;15.40;95.20;;;;;;7367304;19;21031;-43
2022/06/14 01:26:25;;;;;;;6.50;3.77;;;15.20;96.00;;;;;;7353320;19;20379;-45
2022/06/14 01:28:59;;;;;;;6.07;3.80;;;15.40;95.70;;;;;;7369193;19;20372;-45
2022/06/14 01:31:32;;;;;;;5.30;3.83;;;15.60;95.00;;;;;;7368316;19;21021;-43
2022/06/14 01:34:06;;;;;;;3.77;3.40;;;15.60;94.80;;;;;;7360674;19;20376;-43
2022/06/14 01:36:39;;;;;;;6.30;4.00;;;15.60;95.00;;;;;;7371950;19;20383;-44
2022/06/14 01:39:13;;;;;;;10.97;4.30;;;15.60;95.00;;;;;;7370517;19;20384;-44
2022/06/14 01:41:56;;;;;;;8.33;3.93;;;15.40;95.30;;;;;;7372226;19;21827;-44
2022/06/14 01:44:42;;;;;;;8.23;4.07;;;15.30;95.70;;;;;;7370357;19;20384;-44
2022/06/14 01:47:23;;;;;;;6.93;4.10;;;15.30;96.10;;;;;;7366593;19;20424;-44
2022/06/14 01:52:56;;;;;;;7.30;3.90;;;15.10;96.40;;;;;;7373142;19;20384;-41
2022/06/14 01:55:36;;;;;;;6.50;4.70;;;15.20;96.60;;;;;;7371263;19;20412;-40
2022/06/14 01:58:18;;;;;;;9.60;4.40;;;15.30;96.60;;;;;;7368589;19;21239;-41
2022/06/14 02:00:54;;;;;;;6.93;4.77;;;14.90;97.10;;;;;;7368349;19;20417;-40
2022/06/14 02:06:18;;;;;;;5.30;3.80;;;15.30;96.60;;;;;;7368023;19;20982;-40
2022/06/14 02:08:55;;;;;;;7.07;4.10;;;15.40;96.30;;;;;;7372335;19;20376;-41
2022/06/14 02:11:33;;;;;;;8.90;4.07;;;15.50;95.60;;;;;;7367332;19;20412;-40
2022/06/14 02:14:15;;;;;;;5.80;3.80;;;15.50;95.50;;;;;;7374027;19;20517;-40
2022/06/14 02:16:52;;;;;;;8.93;4.47;;;15.40;96.00;;;;;;7369770;19;20384;-41
2022/06/14 02:19:26;;;;;;;5.50;4.13;;;15.20;96.20;;;;;;7370120;19;20411;-40
2022/06/14 02:22:05;;;;;;;8.43;4.57;;;15.10;96.40;;;;;;7372500;19;20383;-44
2022/06/14 02:24:42;;;;;;;5.83;3.90;;;15.10;96.90;;;;;;7369476;19;20402;-44
2022/06/14 02:27:20;;;;;;;6.80;4.37;;;15.30;96.30;;;;;;7373105;19;20404;-44
2022/06/14 02:29:55;;;;;;;9.33;4.73;;;15.40;95.70;;;;;;7370372;19;20368;-44
2022/06/14 02:32:30;;;;;;;6.20;4.10;;;15.40;95.70;;;;;;7378554;19;20416;-43
2022/06/14 02:35:08;;;;;;;7.17;4.03;;;15.40;95.70;;;;;;7381307;19;20380;-44
2022/06/14 02:37:43;;;;;;;9.70;4.50;;;15.30;95.70;;;;;;7377181;19;20935;-43
2022/06/14 02:40:22;;;;;;;9.50;4.20;;;15.00;96.70;;;;;;7378261;19;20408;-44
2022/06/14 02:43:01;;;;;;;7.70;4.43;;;14.90;96.90;;;;;;7372663;19;21398;-43
2022/06/14 02:45:35;;;;;;;8.30;4.40;;;14.90;97.20;;;;;;7379954;19;21162;-46
2022/06/14 02:48:10;;;;;;;5.90;4.40;;;15.00;96.80;;;;;;7356542;19;20413;-43
2022/06/14 02:50:44;;;;;;;9.97;4.93;;;15.00;96.80;;;;;;7378954;19;20360;-44
2022/06/14 02:53:22;;;;;;;7.00;4.20;;;15.10;96.60;;;;;;7378270;19;20378;-44
2022/06/14 02:55:57;;;;;;;6.00;5.07;;;15.00;96.40;;;;;;7378840;19;20375;-43
2022/06/14 02:58:32;;;;;;;8.33;4.87;;;14.70;97.80;;;;;;7368119;19;20372;-42
2022/06/14 03:01:09;;;;;;;9.37;4.60;;;14.60;98.40;;;;;;7379542;19;20733;-43
2022/06/14 03:03:44;;;;;;;5.87;4.33;;;14.70;98.10;;;;;;7380121;19;20921;-43
2022/06/14 03:06:20;;;;;;;9.70;4.90;;;14.60;98.30;;;;;;7377824;19;20360;-43
2022/06/14 03:08:57;;;;;;;8.33;4.20;;;14.50;98.70;;;;;;7375789;19;20741;-43
2022/06/14 03:11:36;;;;;;;14.33;4.60;;;14.40;99.30;;;;;;7374175;19;20382;-42
2022/06/14 03:14:22;;;;;;;9.77;4.47;;;14.40;99.90;;;;;;7369702;19;20383;-43
2022/06/14 03:17:01;;;;;;;7.87;4.40;;;14.30;99.90;;;;;;7372076;19;20520;-43
2022/06/14 03:19:40;;;;;;;5.93;5.27;;;14.40;99.90;;;;;;7375311;19;20368;-42
2022/06/14 03:22:18;;;;;;;4.87;4.13;;;14.60;99.80;;;;;;7370357;19;20383;-42
2022/06/14 03:24:53;;;;;;;10.87;4.70;;;14.50;99.80;;;;;;7373801;19;20402;-43
2022/06/14 03:27:29;;;;;;;7.60;4.50;;;14.60;99.90;;;;;;7372316;19;21177;-43
2022/06/14 03:30:06;;;;;;;6.80;4.60;;;14.80;99.50;;;;;;7371908;19;20398;-43
2022/06/14 03:32:41;;;;;;;9.17;5.10;;;14.80;99.20;;;;;;7369154;19;20716;-43
2022/06/14 03:35:17;;;;;;;9.77;4.70;;;14.90;99.20;;;;;;7377508;19;20384;-43
2022/06/14 03:37:46;;;;;;;7.20;4.30;;;14.90;99.20;;;;;;7376764;19;20414;-43
2022/06/14 03:40:20;;;;;;;7.83;4.53;;;14.90;99.30;;;;;;7373258;19;20913;-43
2022/06/14 03:42:50;;;;;;;7.30;4.57;;;15.10;98.90;;;;;;7373370;19;20738;-43
2022/06/14 03:45:25;;;;;;;6.67;4.70;;;15.10;98.70;;;;;;7370971;19;20392;-43
2022/06/14 03:47:55;;;;;;;4.70;4.07;;;15.10;98.40;;;;;;7373475;19;20372;-43
2022/06/14 03:50:29;;;;;;;8.93;4.83;;;15.00;98.60;;;;;;7372405;19;21268;-43
2022/06/14 03:53:13;;;;;;;6.23;3.93;;;15.00;98.70;;;;;;7372773;19;21026;-43
2022/06/14 03:55:53;;;;;;;6.07;4.57;;;14.90;99.10;;;;;;7371892;19;20487;-43
2022/06/14 03:58:45;;;;;;;6.73;4.13;;;14.70;99.80;;;;;;7365105;19;20740;-43
2022/06/14 04:01:21;;;;;;;8.60;5.40;;;14.60;99.90;;;;;;7371695;19;20415;-43
2022/06/14 04:04:06;;;;;;;8.90;5.10;;;14.70;99.90;;;;;;7363606;19;20368;-44
2022/06/14 04:06:48;;;;;;;7.93;5.10;;;14.80;99.90;;;;;;7368436;19;20922;-43
2022/06/14 04:09:26;;;;;;;6.77;4.50;;;14.40;99.90;;;;;;7368209;19;20376;-43
2022/06/14 04:12:04;;;;;;;7.67;4.80;;;14.50;99.90;;;;;;7366560;19;20464;-43
2022/06/14 04:14:44;;;;;;;15.07;5.87;;;14.70;99.90;;;;;;7368030;19;20380;-43
2022/06/14 04:17:39;;;;;;;9.50;5.60;;;14.80;99.90;;;;;;7365638;19;20754;-42
2022/06/14 04:20:16;;;;;;;8.10;4.70;;;14.90;99.90;;;;;;7371222;19;20375;-43
2022/06/14 04:22:56;;;;;;;11.57;5.13;;;15.10;99.90;;;;;;7368466;19;20415;-43
2022/06/14 04:25:34;;;;;;;7.87;4.57;;;15.10;99.90;;;;;;7370324;19;20420;-43
2022/06/14 04:28:15;;;;;;;9.00;5.00;;;15.20;99.90;;;;;;7361934;19;20431;-43
2022/06/14 04:30:53;;;;;;;6.90;4.27;;;15.30;99.90;;;;;;7370149;19;20879;-43
2022/06/14 04:33:31;;;;;;;7.50;4.43;;;15.30;99.90;;;;;;7371558;19;20502;-43
2022/06/14 04:36:08;;;;;;;7.93;5.30;;;15.40;99.90;;;;;;7377219;19;20391;-43
2022/06/14 04:38:42;;;;;;;7.73;4.30;;;15.10;99.90;;;;;;7371800;19;20379;-44
2022/06/14 04:41:18;;;;;;;5.17;4.63;;;15.30;99.90;;;;;;7369502;19;20376;-43
2022/06/14 04:43:53;;;;;;;10.30;5.30;;;15.50;99.90;;;;;;7369218;19;20443;-43
2022/06/14 04:46:28;;;;;;;6.77;4.63;;;15.70;99.90;;;;;;7368254;19;20442;-44
2022/06/14 04:49:09;;;;;;;8.63;4.47;;;15.90;99.40;;;;;;7375011;19;20401;-43
2022/06/14 04:51:46;;;;;;;10.67;5.10;;;15.80;99.80;;;;;;7374502;19;20377;-43
2022/06/14 04:54:21;;;;;;;8.73;4.60;;;15.80;99.70;;;;;;7377335;19;20391;-43
2022/06/14 04:56:55;;;;;;;9.20;5.00;;;15.40;99.90;;;;;;7375451;19;20998;-43
2022/06/14 04:59:31;;;;;;;9.73;6.70;;;15.20;99.90;;;;;;7374586;19;20418;-43
2022/06/14 05:02:11;;;;;;;5.90;5.30;;;15.20;99.90;;;;;;7375698;19;20390;-43
2022/06/14 05:04:48;;;;;;;9.03;4.93;;;15.10;99.90;;;;;;7373664;19;20414;-43
2022/06/14 05:07:26;;;;;;;7.27;5.40;;;15.20;99.90;;;;;;7376966;19;21187;-43
2022/06/14 05:10:01;;;;;;;12.23;5.97;;;15.10;99.90;;;;;;7378031;19;20787;-43
2022/06/14 05:12:37;;;;;;;8.40;5.23;;;15.20;99.90;;;;;;7375269;19;20916;-43
2022/06/14 05:15:12;;;;;;;10.40;6.20;;;15.50;99.90;;;;;;7375897;19;20803;-43
2022/06/14 05:17:47;;;;;;;11.20;6.23;;;15.50;99.90;;;;;;7373959;19;20529;-43
2022/06/14 05:20:25;;;;;;;8.13;5.60;;;15.60;99.90;;;;;;7370445;19;20386;-43
2022/06/14 05:23:02;;;;;;;9.97;6.97;;;15.80;99.90;;;;;;7374348;19;20408;-43
2022/06/14 05:25:39;;;;;;;12.93;7.30;;;16.20;99.90;;;;;;7361852;19;21056;-44
2022/06/14 05:28:13;;;;;;;9.63;6.63;;;16.30;99.10;;;;;;7376473;19;20407;-43
2022/06/14 05:30:52;;;;;;;16.00;8.07;;;16.30;98.90;;;;;;7374384;19;20804;-40
2022/06/14 05:33:31;;;;;;;15.63;8.13;;;16.30;98.80;;;;;;7373963;19;22265;-40
2022/06/14 05:36:10;;;;;;;14.37;7.70;;;16.40;98.00;;;;;;7372795;19;20393;-40
2022/06/14 05:38:45;;;;;;;9.77;6.40;;;16.40;97.60;;;;;;7369022;19;20476;-41
2022/06/14 05:41:20;;;;;;;11.23;7.53;;;16.60;96.90;;;;;;7373675;19;20408;-40
2022/06/14 05:43:52;;;;;;;8.43;7.10;;;16.80;95.90;;;;;;7375430;19;20904;-40
2022/06/14 05:46:25;;;;;;;9.77;5.93;;;17.00;95.60;;;;;;7367465;19;20428;-41
2022/06/14 05:48:58;;;;;;;9.67;6.10;;;17.30;94.90;;;;;;7373551;19;20423;-41
2022/06/14 05:51:39;;;;;;;8.83;6.30;;;17.50;94.10;;;;;;7372660;19;20372;-41
2022/06/14 05:54:17;;;;;;;8.87;5.80;;;17.80;93.20;;;;;;7376357;19;20490;-42
2022/06/14 05:56:51;;;;;;;9.93;6.70;;;18.00;92.60;;;;;;7369553;19;20443;-40
2022/06/14 05:59:32;;;;;;;10.97;7.00;;;18.10;91.70;;;;;;7368727;19;20372;-41
2022/06/14 06:02:12;;;;;;;8.43;5.20;;;18.20;91.50;;;;;;7370338;19;20411;-44
2022/06/14 06:04:49;;;;;;;8.70;5.90;;;18.20;91.20;;;;;;7370994;19;20372;-43
2022/06/14 06:07:32;;;;;;;11.20;6.20;;;18.20;91.20;;;;;;7376479;19;20363;-43
2022/06/14 06:10:06;;;;;;;16.10;6.33;;;18.30;91.30;;;;;;7378510;19;20404;-44
2022/06/14 06:12:40;;;;;;;8.70;6.07;;;18.40;91.00;;;;;;7381874;19;20399;-43
2022/06/14 06:15:16;;;;;;;9.37;5.77;;;18.50;91.20;;;;;;7380176;19;20368;-44
2022/06/14 06:17:51;;;;;;;11.10;6.20;;;18.60;88.70;;;;;;7377074;19;20391;-44
2022/06/14 06:20:31;;;;;;;10.13;5.10;;;18.90;88.20;;;;;;7378505;19;20395;-44
2022/06/14 06:23:13;;;;;;;7.70;4.90;;;19.20;86.30;;;;;;7378105;19;20399;-44
2022/06/14 06:25:47;;;;;;;10.23;6.07;;;19.20;85.10;;;;;;7374923;19;20376;-44
2022/06/14 06:28:21;;;;;;;10.63;5.60;;;19.30;85.00;;;;;;7377192;19;20764;-44
2022/06/14 06:30:55;;;;;;;10.60;6.23;;;19.40;83.90;;;;;;7379679;19;20366;-44
2022/06/14 06:33:28;;;;;;;8.93;5.40;;;19.50;83.80;;;;;;7379215;19;20384;-44
2022/06/14 06:36:15;;;;;;;6.50;5.20;;;19.70;82.50;;;;;;7375768;19;20968;-44
2022/06/14 06:38:56;;;;;;;6.13;5.17;;;19.90;80.10;;;;;;7377256;19;21326;-44
2022/06/14 06:44:18;;;;;;;13.80;5.73;;;20.30;78.30;;;;;;7373209;19;20825;-44
2022/06/14 06:46:52;;;;;;;11.93;5.57;;;20.50;76.20;;;;;;7375178;19;20801;-44
2022/06/14 06:49:29;;;;;;;8.03;4.73;;;20.50;75.00;;;;;;7377503;19;20364;-44
2022/06/14 06:52:04;;;;;;;10.53;5.50;;;20.50;76.30;;;;;;7380634;19;20406;-44
2022/06/14 06:54:42;;;;;;;8.97;5.30;;;20.50;75.50;;;;;;7379591;19;20726;-44
2022/06/14 06:57:19;;;;;;;9.90;5.13;;;20.60;74.20;;;;;;7378641;19;21078;-44
2022/06/14 06:59:51;;;;;;;7.23;4.70;;;20.50;73.40;;;;;;7372352;19;20530;-41
2022/06/14 07:02:26;;;;;;;7.00;5.30;;;20.70;73.20;;;;;;7374703;19;20369;-41
2022/06/14 07:05:09;;;;;;;8.90;4.70;;;20.90;70.80;;;;;;7378678;19;20374;-41
2022/06/14 07:07:58;;;;;;;6.60;5.10;;;21.00;70.10;;;;;;7380189;19;20383;-41
2022/06/14 07:10:38;;;;;;;4.90;4.00;;;21.10;68.40;;;;;;7375658;19;20981;-41
2022/06/14 07:13:19;;;;;;;7.63;4.90;;;21.30;68.80;;;;;;7378376;19;20921;-41
2022/06/14 07:15:54;;;;;;;8.37;4.50;;;21.50;65.80;;;;;;7376588;19;20383;-41
2022/06/14 07:18:28;;;;;;;5.37;4.40;;;21.70;63.60;;;;;;7375017;19;20475;-41
2022/06/14 07:21:05;;;;;;;8.37;4.73;;;21.70;62.20;;;;;;7371671;19;20404;-41
2022/06/14 07:23:43;;;;;;;7.80;4.03;;;21.80;62.40;;;;;;7372679;19;20400;-41
2022/06/14 07:26:25;;;;;;;5.77;4.00;;;22.00;62.60;;;;;;7379640;19;20384;-41
2022/06/14 07:29:02;;;;;;;9.43;4.17;;;22.10;60.10;;;;;;7375772;19;20383;-41
2022/06/14 07:31:39;;;;;;;6.53;4.40;;;21.90;60.80;;;;;;7378008;19;20814;-44
2022/06/14 07:34:10;;;;;;;8.03;4.83;;;22.00;61.40;;;;;;7378698;19;20982;-44
2022/06/14 07:36:53;;;;;;;10.20;4.83;;;22.10;59.80;;;;;;7379412;19;20427;-44
2022/06/14 07:39:30;;;;;;;6.03;4.40;;;22.10;59.40;;;;;;7376569;19;20376;-44
2022/06/14 07:42:09;;;;;;;11.07;4.20;;;21.90;58.80;;;;;;7376857;19;20994;-45
2022/06/14 07:44:44;;;;;;;6.57;4.83;;;22.10;59.20;;;;;;7374960;19;20380;-45
2022/06/14 07:47:20;;;;;;;6.23;4.20;;;22.20;59.50;;;;;;7375636;19;20431;-45
2022/06/14 07:49:57;;;;;;;10.20;4.10;;;22.50;58.50;;;;;;7376894;19;20420;-45
2022/06/14 07:52:33;;;;;;;6.90;4.10;;;22.70;57.80;;;;;;7376464;19;20375;-44
2022/06/14 07:55:25;;;;;;;8.67;4.47;;;22.70;57.40;;;;;;7376452;19;20419;-44
2022/06/14 07:58:03;;;;;;;9.37;5.00;;;22.80;57.50;;;;;;7377954;19;20388;-44
2022/06/14 08:03:25;;;;;;;8.97;5.50;;;23.10;56.80;;;;;;7374767;19;20922;-41
2022/06/14 08:05:58;;;;;;;6.70;4.43;;;23.20;55.30;;;;;;7374493;19;20394;-42
2022/06/14 08:08:31;;;;;;;8.70;4.80;;;23.40;55.70;;;;;;7373750;19;20381;-42
2022/06/14 08:11:07;;;;;;;7.43;4.53;;;23.50;55.40;;;;;;7372943;19;20418;-42
2022/06/14 08:13:45;;;;;;;7.77;4.07;;;23.60;53.60;;;;;;7376348;19;20863;-42
2022/06/14 08:16:19;;;;;;;7.13;4.33;;;23.60;53.90;;;;;;7373012;19;20387;-42
2022/06/14 08:18:53;;;;;;;8.40;5.00;;;23.70;53.20;;;;;;7374399;19;20391;-42
2022/06/14 08:21:30;;;;;;;5.17;4.00;;;23.90;53.20;;;;;;7377996;19;20481;-42
2022/06/14 08:24:06;;;;;;;6.30;5.03;;;24.00;53.10;;;;;;7374311;19;20379;-42
2022/06/14 08:26:42;;;;;;;6.40;4.10;;;24.20;52.70;;;;;;7377348;19;20396;-42
2022/06/14 08:29:24;;;;;;;4.60;4.10;;;24.30;52.20;;;;;;7375932;19;20376;-42
2022/06/14 08:31:58;;;;;;;6.57;4.00;;;24.50;52.10;;;;;;7376550;19;20391;-42
2022/06/14 08:34:34;;;;;;;7.93;4.20;;;24.70;51.50;;;;;;7375540;19;20736;-42
2022/06/14 08:37:11;;;;;;;5.57;3.70;;;24.80;50.90;;;;;;7376643;19;20670;-42
2022/06/14 08:39:46;;;;;;;5.70;3.73;;;24.90;50.50;;;;;;7373506;19;20425;-42
2022/06/14 08:42:27;;;;;;;8.83;4.50;;;25.00;50.40;;;;;;7374724;19;21113;-42
2022/06/14 08:45:07;;;;;;;4.90;3.70;;;25.10;49.30;;;;;;7378601;19;20380;-42
2022/06/14 08:48:02;;;;;;;10.67;4.00;;;25.30;49.70;;;;;;7376177;19;20471;-42
2022/06/14 08:50:57;;;;;;;6.10;4.83;;;25.50;48.80;;;;;;7375063;19;20399;-42
2022/06/14 08:54:09;;;;;;;6.70;3.33;;;25.60;48.60;;;;;;7373338;19;20941;-42
2022/06/14 08:56:59;;;;;;;5.83;3.60;;;25.80;48.10;;;;;;7371816;19;20933;-42
2022/06/14 09:00:13;;;;;;;5.50;3.70;;;26.00;47.90;;;;;;7376712;19;20479;-42
2022/06/14 09:03:28;;;;;;;5.57;4.30;;;26.20;46.60;;;;;;7375783;19;20408;-45
2022/06/14 09:06:29;;;;;;;6.37;3.60;;;26.50;46.20;;;;;;7373917;19;20416;-45
2022/06/14 09:09:22;;;;;;;9.00;4.90;;;26.80;44.90;;;;;;7372634;19;20508;-44
2022/06/14 09:12:17;;;;;;;12.00;9.93;;;26.90;44.50;;;;;;7374885;19;20403;-45
2022/06/14 09:15:06;;;;;;;7.77;4.30;;;27.30;44.70;;;;;;7377725;19;20378;-45
2022/06/14 09:18:00;;;;;;;7.70;4.10;;;27.60;43.70;;;;;;7374889;19;20798;-45
2022/06/14 09:20:39;;;;;;;6.00;4.73;;;27.90;42.50;;;;;;7374730;19;20922;-46
2022/06/14 09:23:34;;;;;;;7.73;6.93;;;28.20;42.30;;;;;;7372117;19;20971;-45
2022/06/14 09:26:24;;;;;;;4.23;3.60;;;28.30;41.20;;;;;;7375172;19;20447;-45
2022/06/14 09:29:25;;;;;;;5.50;3.70;;;28.60;40.90;;;;;;7372245;19;20393;-45
2022/06/14 09:32:10;;;;;;;5.40;4.17;;;29.00;39.40;;;;;;7374815;19;20387;-42
2022/06/14 09:34:54;;;;;;;7.90;3.90;;;29.20;38.00;;;;;;7375253;19;20918;-42
2022/06/14 09:37:47;;;;;;;7.30;3.57;;;29.30;38.60;;;;;;7374313;19;20372;-42
2022/06/14 09:40:38;;;;;;;7.33;3.30;;;29.60;37.20;;;;;;7375286;19;20735;-45
2022/06/14 09:43:42;;;;;;;5.73;3.37;;;29.70;36.20;;;;;;7382122;19;20380;-42
2022/06/14 09:46:41;;;;;;;3.23;2.93;;;29.50;36.40;;;;;;7379332;19;20452;-42
2022/06/14 09:49:44;;;;;;;9.07;3.47;;;29.80;35.00;;;;;;7378700;19;21029;-42
2022/06/14 09:53:02;;;;;;;5.60;2.70;;;30.40;34.70;;;;;;7379959;19;20491;-42
2022/06/14 09:56:12;;;;;;;5.10;3.10;;;31.10;34.20;;;;;;7381417;19;20403;-43
2022/06/14 09:59:20;;;;;;;6.57;3.73;;;31.80;33.70;;;;;;7381168;19;20380;-43
2022/06/14 10:01:56;;;;;;;3.60;2.87;;;32.20;31.50;;;;;;7378549;19;20969;-43
2022/06/14 10:04:58;;;;;;;3.30;2.67;;;32.50;32.10;;;;;;7382240;19;20383;-43
2022/06/14 10:07:54;;;;;;;4.20;2.93;;;33.40;31.10;;;;;;7383293;19;20488;-43
2022/06/14 10:10:43;;;;;;;8.30;3.30;;;33.80;30.40;;;;;;7380233;19;20396;-43
2022/06/14 10:13:53;;;;;;;4.70;2.70;;;34.20;29.00;;;;;;7381453;19;20379;-43
2022/06/14 10:16:36;;;;;;;5.43;2.90;;;34.30;29.10;;;;;;7381141;19;20491;-43
2022/06/14 10:19:29;;;;;;;4.17;3.13;;;34.40;28.90;;;;;;7377549;19;20520;-43
2022/06/14 10:22:13;;;;;;;3.80;2.93;;;34.70;28.70;;;;;;7378873;19;20380;-43
2022/06/14 10:24:47;;;;;;;5.30;3.23;;;35.00;28.90;;;;;;7363378;19;20463;-43
2022/06/14 10:30:43;;;;;;;5.60;2.90;;;36.30;27.40;;;;;;7380280;19;20375;-42
2022/06/14 10:33:28;;;;;;;3.73;2.60;;;36.70;27.40;;;;;;7376379;19;20980;-43
2022/06/14 10:36:16;;;;;;;5.60;3.37;;;37.10;27.20;;;;;;7372454;19;20411;-42
2022/06/14 10:39:11;;;;;;;15.20;4.03;;;36.80;27.30;;;;;;7375806;19;20412;-43
2022/06/14 10:41:44;;;;;;;4.13;3.10;;;37.30;26.50;;;;;;7368723;19;20447;-43
2022/06/14 10:44:20;;;;;;;15.23;3.87;;;37.50;27.30;;;;;;7375347;19;20384;-43
2022/06/14 10:47:04;;;;;;;4.27;2.70;;;38.00;26.30;;;;;;7371415;19;20443;-43
2022/06/14 10:50:20;;;;;;;5.87;3.40;;;38.20;27.10;;;;;;7376452;19;20380;-43
2022/06/14 10:52:57;;;;;;;3.57;2.97;;;38.70;25.40;;;;;;7371438;19;20379;-43
2022/06/14 10:55:57;;;;;;;4.63;3.40;;;38.70;24.90;;;;;;7378175;19;20371;-43
2022/06/14 10:58:54;;;;;;;9.27;3.57;;;38.80;26.30;;;;;;7374796;19;21119;-43
2022/06/14 11:01:37;;;;;;;6.70;3.10;;;38.20;24.70;;;;;;7370999;19;20410;-43
2022/06/14 11:04:17;;;;;;;6.70;3.07;;;38.80;25.10;;;;;;7374022;19;20455;-43
2022/06/14 11:07:40;;;;;;;3.83;3.00;;;38.30;25.20;;;;;;7373992;19;20383;-42
2022/06/14 11:10:40;;;;;;;3.57;3.20;;;38.20;24.90;;;;;;7377712;19;21428;-44
2022/06/14 11:13:14;;;;;;;4.57;3.47;;;;;;;;;;7378638;19;20393;-45
2022/06/14 11:15:52;;;;;;;4.03;2.90;;;37.00;25.70;;;;;;7375592;19;20403;-45
2022/06/14 11:18:59;;;;;;;3.40;2.60;;;38.30;25.50;;;;;;7378341;19;20416;-46
2022/06/14 11:21:50;;;;;;;4.60;2.87;;;39.00;25.00;;;;;;7375005;19;20412;-45
2022/06/14 11:24:26;;;;;;;3.50;2.67;;;39.60;24.80;;;;;;7375775;19;20390;-45
2022/06/14 11:27:03;;;;;;;3.77;2.77;;;39.90;23.80;;;;;;7379060;19;20749;-45
2022/06/14 11:29:40;;;;;;;4.30;2.60;;;40.00;23.80;;;;;;7373626;19;20920;-45
2022/06/14 11:32:17;;;;;;;3.07;2.60;;;40.60;23.10;;;;;;7379382;19;20437;-46
2022/06/14 11:34:59;;;;;;;4.10;3.00;;;40.80;23.70;;;;;;7377334;19;20415;-46
2022/06/14 11:38:04;;;;;;;4.30;2.77;;;41.10;23.60;;;;;;7378315;19;20808;-46
2022/06/14 11:40:35;;;;;;;3.00;2.70;;;41.00;23.30;;;;;;7375232;19;20505;-46
2022/06/14 11:43:16;;;;;;;5.23;3.10;;;41.20;23.00;;;;;;7372774;19;20969;-44
2022/06/14 11:45:57;;;;;;;4.83;3.00;;;41.10;22.20;;;;;;7375421;19;20974;-45
2022/06/14 11:48:34;;;;;;;3.93;2.70;;;41.30;22.50;;;;;;7378351;19;20379;-45
2022/06/14 11:51:15;;;;;;;4.43;2.33;;;41.50;22.50;;;;;;7376060;19;20390;-45
2022/06/14 11:54:16;;;;;;;5.37;3.93;;;41.60;21.70;;;;;;7364889;19;20401;-45
2022/06/14 11:56:59;;;;;;;3.67;3.33;;;41.40;22.20;;;;;;7376809;19;20393;-45
2022/06/14 11:59:55;;;;;;;5.50;2.80;;;41.20;23.30;;;;;;7375617;19;20779;-45
2022/06/14 12:02:51;;;;;;;4.47;2.63;;;41.60;22.30;;;;;;7372790;19;20516;-45
2022/06/14 12:05:33;;;;;;;3.40;2.43;;;41.40;22.20;;;;;;7376137;19;20368;-45
2022/06/14 12:08:14;;;;;;;4.23;2.67;;;41.60;21.40;;;;;;7370860;19;20913;-44
2022/06/14 12:10:55;;;;;;;4.50;2.50;;;39.70;22.50;;;;;;7370780;19;20368;-42
2022/06/14 12:13:51;;;;;;;3.10;2.53;;;40.20;23.10;;;;;;7368583;19;20846;-42
2022/06/14 12:16:31;;;;;;;3.37;2.80;;;40.60;22.40;;;;;;7354829;19;20413;-42
2022/06/14 12:19:08;;;;;;;5.33;2.87;;;40.00;22.40;;;;;;7372006;19;20390;-43
2022/06/14 12:21:50;;;;;;;5.13;2.63;;;40.30;22.20;;;;;;7376205;19;21290;-42
2022/06/14 12:26:34;;;;;;;2.80;2.60;;;39.70;22.50;;;;;;7375670;19;20396;-41
2022/06/14 12:27:19;;;;;;;3.80;2.53;;;38.50;23.20;;;;;;7375185;19;20451;-41
2022/06/14 12:29:54;;;;;;;4.60;2.70;;;37.10;23.90;;;;;;7378523;19;20750;-41
2022/06/14 12:32:34;;;;;;;4.70;2.37;;;36.70;24.60;;;;;;7378958;19;20364;-42
2022/06/14 12:35:07;;;;;;;5.03;2.70;;;38.40;23.60;;;;;;7376097;19;20901;-41
2022/06/14 12:37:41;;;;;;;4.33;2.47;;;38.20;22.90;;;;;;7378884;19;20909;-41
2022/06/14 12:40:14;;;;;;;2.67;2.43;;;37.70;23.30;;;;;;7376112;19;21935;-41
2022/06/14 12:42:54;;;;;;;6.77;3.03;;;37.30;24.00;;;;;;7374077;19;20396;-42
2022/06/14 12:45:28;;;;;;;4.50;2.63;;;38.70;23.20;;;;;;7378108;19;20370;-41
2022/06/14 12:48:12;;;;;;;4.27;2.80;;;38.80;23.10;;;;;;7376440;19;20393;-42
2022/06/14 12:50:45;;;;;;;3.73;2.40;;;38.80;22.80;;;;;;7378500;19;20372;-41
2022/06/14 12:53:19;;;;;;;3.27;2.83;;;38.60;23.40;;;;;;7376879;19;20384;-44
2022/06/14 12:55:52;;;;;;;4.30;2.40;;;39.40;23.20;;;;;;7374014;19;20379;-44
2022/06/14 12:58:39;;;;;;;4.00;2.47;;;38.70;22.50;;;;;;7374222;19;20365;-44
2022/06/14 13:01:21;;;;;;;3.37;2.30;;;36.20;23.60;;;;;;7374453;19;20388;-45
2022/06/14 13:03:57;;;;;;;4.63;2.80;;;34.20;25.50;;;;;;7377322;19;20393;-45
2022/06/14 13:06:57;;;;;;;2.73;2.37;;;35.30;24.90;;;;;;7377472;19;20379;-45
2022/06/14 13:09:35;;;;;;;5.87;2.83;;;36.70;24.60;;;;;;7372123;19;20404;-45
2022/06/14 13:12:19;;;;;;;3.53;2.50;;;37.50;23.70;;;;;;7375612;19;20418;-42
2022/06/14 13:15:00;;;;;;;5.50;2.33;;;36.70;23.80;;;;;;7375422;19;20380;-42
2022/06/14 13:17:49;;;;;;;3.80;2.30;;;36.30;24.50;;;;;;7350234;19;20420;-45
2022/06/14 13:20:28;;;;;;;3.23;2.70;;;36.20;24.70;;;;;;7374446;19;20383;-42
2022/06/14 13:23:08;;;;;;;6.07;5.47;;;37.00;24.60;;;;;;7371983;19;20391;-42
2022/06/14 13:26:14;;;;;;;4.20;3.27;;;37.50;24.40;;;;;;7372833;19;20400;-41
2022/06/14 13:29:05;;;;;;;3.80;2.40;;;38.10;23.70;;;;;;7374010;19;20379;-41
2022/06/14 13:31:57;;;;;;;2.73;2.30;;;37.60;23.50;;;;;;7373430;19;20376;-41
2022/06/14 13:34:37;;;;;;;3.67;3.00;;;37.50;23.60;;;;;;7375210;19;20380;-42
2022/06/14 13:37:22;;;;;;;4.57;2.60;;;36.60;24.10;;;;;;7372117;19;20372;-42
2022/06/14 13:39:56;;;;;;;4.40;2.90;;;36.40;24.60;;;;;;7375309;19;20388;-42
2022/06/14 13:42:33;;;;;;;4.60;2.90;;;36.30;24.80;;;;;;7371805;19;20380;-42
2022/06/14 13:45:14;;;;;;;4.23;2.13;;;35.20;25.40;;;;;;7372386;19;21091;-42
2022/06/14 13:47:49;;;;;;;2.43;2.17;;;35.40;25.20;;;;;;7372696;19;20798;-42
2022/06/14 13:50:25;;;;;;;6.27;2.47;;;35.40;25.10;;;;;;7372451;19;20396;-42
2022/06/14 13:53:01;;;;;;;3.53;2.60;;;34.50;25.90;;;;;;7372900;19;20376;-42
2022/06/14 13:55:37;;;;;;;2.93;2.53;;;33.80;26.70;;;;;;7373263;19;20395;-42
2022/06/14 13:58:13;;;;;;;3.37;2.63;;;33.60;26.90;;;;;;7370943;19;20784;-44
2022/06/14 14:00:52;;;;;;;2.70;2.50;;;32.50;27.30;;;;;;7373671;19;20424;-41
2022/06/14 14:03:34;;;;;;;3.47;2.67;;;30.90;28.50;;;;;;7373727;19;20683;-42
2022/06/14 14:06:10;;;;;;;4.50;2.90;;;30.10;29.70;;;;;;7369412;19;20435;-42
2022/06/14 14:08:59;;;;;;;4.83;2.83;;;29.50;30.40;;;;;;7374381;19;20383;-41
2022/06/14 14:11:40;;;;;;;4.50;2.50;;;29.40;30.40;;;;;;7372852;19;20491;-42